This demonstration page uses our WeatherBlox Daily Observations layout. Learn more.

Left ArrowRight Arrow

36.17497, -115.13722

Hourly Observations for December 16, 2018

Temp ( °F °C ) Dew Point ( °F °C ) Humidity (%) Winds ( mph kmh ) Pressure ( in mb ) Visibility ( mi km ) Precip ( " mm )
12:53 am 00:53 Clear 43 6.1 19 -7.2 38 38 NW 5 7 30.26 1025 10 16.0934 0 0
1:53 am 01:53 Clear 43 6.1 19 -7.2 38 38 NNW 3 6 30.27 1025 10 16.0934 0 0
2:53 am 02:53 Clear 41 5 19 -7.2 41 41 NW 5 7 30.26 1025 10 16.0934 0 0
3:53 am 03:53 Clear 42 5.6 18 -7.8 38 38 NW 6 9 30.25 1025 10 16.0934 0 0
4:53 am 04:53 Clear 38 3.3 20 -6.7 48 48 Calm 30.27 1025 10 16.0934 0 0
5:53 am 05:53 Clear 38 3.3 20 -6.7 48 48 Calm 30.28 1026 10 16.0934 0 0
6:53 am 06:53 Sunny 38 3.3 20 -6.7 48 48 NW 6 9 30.29 1026 10 16.0934 0 0
7:53 am 07:53 Sunny 42 5.6 21 -6.1 43 43 WNW 5 7 30.3 1026 10 16.0934 0 0
8:53 am 08:53 Sunny 49 9.4 19 -7.2 31 31 Calm 30.31 1026 10 16.0934 0 0
9:53 am 09:53 Sunny 53 11.7 18 -7.8 25 25 Calm 30.3 1026 10 16.0934 0 0
10:53 am 10:53 Sunny 56 13.3 19 -7.2 24 24 SE 5 7 30.28 1025 10 16.0934 0 0
11:53 am 11:53 Sunny 60 15.6 18 -7.8 19 19 SSE 6 9 30.23 1024 10 16.0934 0 0
12:53 pm 12:53 Sunny 61 16.1 16 -8.9 17 17 VRB 3 6 30.19 1023 10 16.0934 0 0
1:53 pm 13:53 Sunny 62 16.7 19 -7.2 19 19 SSE 7 11 30.18 1022 10 16.0934 0 0
2:53 pm 14:53 Sunny 63 17.2 19 -7.2 18 18 SSE 7 11 30.18 1022 10 16.0934 0 0
3:53 pm 15:53 Sunny 62 16.7 19 -7.2 19 19 SSE 7 11 30.18 1022 10 16.0934 0 0
4:53 pm 16:53 Clear 58 14.4 20 -6.7 23 23 S 3 6 30.19 1023 10 16.0934 0 0
5:53 pm 17:53 Clear 55 12.8 21 -6.1 26 26 E 3 6 30.21 1023 10 16.0934 0 0
6:53 pm 18:53 Clear 53 11.7 23 -5 31 31 Calm 30.2 1023 10 16.0934 0 0
7:53 pm 19:53 Clear 50 10 25 -3.9 38 38 WNW 7 11 30.21 1023 10 16.0934 0 0
8:53 pm 20:53 Clear 48 8.9 24 -4.4 39 39 Calm 30.2 1023 10 16.0934 0 0
9:53 pm 21:53 Clear 46 7.8 24 -4.4 42 42 NW 5 7 30.2 1023 10 16.0934 0 0
10:53 pm 22:53 Clear 45 7.2 24 -4.4 44 44 WNW 6 9 30.19 1022 10 16.0934 0 0
11:53 pm 23:53 Clear 45 7.2 24 -4.4 44 44 NW 6 9 30.17 1022 10 16.0934 0 0

Powered by AerisWeather